Time;durP1;ratioP1;P1;durP2;ratioP2;P2;SDS_P1;SDS_P2;PMS_P1;PMS_P2;Temp;Humidity;BMP_temperature;BMP_pressure;BME280_temperature;BME280_humidity;BME280_pressure;Samples;Min_cycle;Max_cycle;Signal;HPM_P1;HPM_P2
2024/01/20 00:01:13;;;;;;;37.78;15.07;;;-2.90;99.90;;;;;;5045879;28;20025;-80
2024/01/20 00:03:39;;;;;;;38.50;14.52;;;-2.90;99.90;;;;;;5066335;28;20093;-81
2024/01/20 00:06:05;;;;;;;38.03;15.45;;;-2.80;99.90;;;;;;5073065;28;20032;-85
2024/01/20 00:08:30;;;;;;;36.72;15.23;;;-2.90;99.90;;;;;;5053424;28;20088;-79
2024/01/20 00:10:56;;;;;;;34.70;14.27;;;-2.70;99.90;;;;;;5045647;28;20539;-77
2024/01/20 00:13:21;;;;;;;32.22;13.82;;;-1.90;99.90;;;;;;5048826;28;20065;-81
2024/01/20 00:15:47;;;;;;;42.70;15.02;;;-2.90;99.90;;;;;;5051625;28;20017;-83
2024/01/20 00:18:13;;;;;;;34.85;12.52;;;-1.90;99.90;;;;;;5055764;28;20013;-78
2024/01/20 00:20:39;;;;;;;35.03;13.77;;;-2.50;99.90;;;;;;5070500;28;20070;-79
2024/01/20 00:23:04;;;;;;;36.08;14.98;;;-2.90;99.90;;;;;;5069012;28;20058;-79
2024/01/20 00:25:30;;;;;;;35.17;14.48;;;-2.00;99.90;;;;;;5085002;28;20039;-82
2024/01/20 00:27:56;;;;;;;29.67;12.85;;;-2.30;99.90;;;;;;5065764;28;20016;-79
2024/01/20 00:30:21;;;;;;;39.53;15.60;;;-2.60;99.90;;;;;;5078689;28;20214;-77
2024/01/20 00:32:47;;;;;;;34.67;13.35;;;-2.70;99.90;;;;;;5104123;28;20107;-80
2024/01/20 00:35:14;;;;;;;37.53;15.98;;;-2.70;99.90;;;;;;5106615;28;20070;-78
2024/01/20 00:37:39;;;;;;;33.38;13.80;;;-2.80;99.90;;;;;;5107918;28;20028;-80
2024/01/20 00:40:06;;;;;;;42.83;16.67;;;-2.60;99.90;;;;;;5103320;28;20047;-78
2024/01/20 00:42:31;;;;;;;27.58;12.23;;;-2.60;99.90;;;;;;5101169;28;20034;-77
2024/01/20 00:44:57;;;;;;;30.52;11.75;;;-2.40;99.90;;;;;;5103202;28;20028;-80
2024/01/20 00:47:23;;;;;;;28.90;12.38;;;-2.40;99.90;;;;;;5104754;28;20019;-80
2024/01/20 00:49:48;;;;;;;31.98;13.25;;;-2.60;99.90;;;;;;5105555;28;20055;-81
2024/01/20 00:52:15;;;;;;;32.88;13.07;;;-2.30;99.90;;;;;;5103419;28;20031;-77
2024/01/20 00:54:40;;;;;;;34.35;12.98;;;-2.90;99.90;;;;;;5101669;28;20059;-77
2024/01/20 00:57:06;;;;;;;33.78;13.57;;;-2.90;99.90;;;;;;5102990;28;20027;-77
2024/01/20 00:59:32;;;;;;;34.97;13.73;;;-2.10;99.90;;;;;;5103713;28;20023;-77
2024/01/20 01:01:57;;;;;;;28.92;11.52;;;-3.10;99.90;;;;;;5103456;28;20020;-79
2024/01/20 01:04:23;;;;;;;32.53;14.52;;;-3.10;99.90;;;;;;5104491;28;20039;-77
2024/01/20 01:06:48;;;;;;;31.63;11.98;;;-2.90;99.90;;;;;;5104455;28;20043;-76
2024/01/20 01:09:14;;;;;;;29.65;13.07;;;-3.20;99.90;;;;;;5104626;28;20020;-81
2024/01/20 01:11:41;;;;;;;31.85;12.48;;;-2.40;99.90;;;;;;5108538;28;20028;-81
2024/01/20 01:14:07;;;;;;;24.23;10.93;;;-3.10;99.90;;;;;;5109524;28;20032;-81
2024/01/20 01:16:32;;;;;;;32.13;14.40;;;-2.60;99.90;;;;;;5111541;28;20023;-77
2024/01/20 01:18:58;;;;;;;26.20;12.02;;;-3.10;99.90;;;;;;5101580;28;20030;-81
2024/01/20 01:21:24;;;;;;;27.55;13.23;;;-3.00;99.90;;;;;;5089095;28;20035;-78
2024/01/20 01:23:49;;;;;;;27.73;10.88;;;-3.00;99.90;;;;;;5089275;28;20020;-77
2024/01/20 01:26:15;;;;;;;35.20;14.77;;;-3.10;99.90;;;;;;5089026;28;20324;-79
2024/01/20 01:28:41;;;;;;;32.78;13.90;;;-3.30;99.90;;;;;;5089025;28;20025;-79
2024/01/20 01:31:07;;;;;;;32.97;13.07;;;-3.30;99.90;;;;;;5093709;28;20037;-80
2024/01/20 01:33:32;;;;;;;37.83;15.27;;;-3.30;99.90;;;;;;5094747;28;20064;-80
2024/01/20 01:35:58;;;;;;;33.22;13.95;;;-1.70;99.90;;;;;;5095546;28;20016;-81
2024/01/20 01:38:23;;;;;;;28.17;13.30;;;-1.90;99.90;;;;;;5091840;28;20042;-77
2024/01/20 01:40:49;;;;;;;31.10;14.43;;;-3.00;99.90;;;;;;5095973;28;20027;-76
2024/01/20 01:43:15;;;;;;;28.40;14.07;;;-2.60;99.90;;;;;;5092858;28;20031;-77
2024/01/20 01:45:41;;;;;;;36.33;15.57;;;-1.40;99.90;;;;;;5090072;28;20025;-76
2024/01/20 01:48:07;;;;;;;33.38;14.63;;;-2.20;99.90;;;;;;5086040;28;20020;-79
2024/01/20 01:50:33;;;;;;;35.00;13.50;;;-3.10;99.90;;;;;;5086233;28;20084;-76
2024/01/20 01:52:58;;;;;;;37.55;15.18;;;-3.20;99.90;;;;;;5087520;28;20037;-77
2024/01/20 01:55:25;;;;;;;35.95;14.48;;;-2.30;99.90;;;;;;5090085;28;20055;-76
2024/01/20 01:57:55;;;;;;;36.30;15.18;;;-1.90;99.90;;;;;;5089060;28;20033;-76
2024/01/20 02:00:21;;;;;;;33.22;14.23;;;-2.80;99.90;;;;;;5088589;28;20084;-77
2024/01/20 02:02:46;;;;;;;37.17;14.02;;;-2.90;99.90;;;;;;5086316;28;20096;-76
2024/01/20 02:05:12;;;;;;;43.28;16.40;;;-1.90;99.90;;;;;;5087858;28;20016;-80
2024/01/20 02:07:41;;;;;;;31.23;13.70;;;-2.90;99.90;;;;;;5093049;28;20021;-81
2024/01/20 02:10:09;;;;;;;40.53;14.65;;;-2.40;99.90;;;;;;5093405;28;20016;-81
2024/01/20 02:12:35;;;;;;;36.55;15.15;;;-3.10;99.90;;;;;;5091511;28;20036;-76
2024/01/20 02:15:01;;;;;;;28.25;12.75;;;-3.20;99.90;;;;;;5088301;28;20016;-79
2024/01/20 02:17:27;;;;;;;30.58;13.82;;;-3.30;99.90;;;;;;5088156;28;20122;-76
2024/01/20 02:19:53;;;;;;;30.50;12.30;;;-3.40;99.90;;;;;;5103762;28;20080;-77
2024/01/20 02:22:18;;;;;;;30.27;12.20;;;-3.40;99.90;;;;;;5108339;28;20031;-79
2024/01/20 02:24:50;;;;;;;35.38;12.25;;;-3.60;99.90;;;;;;5111463;28;20036;-78
2024/01/20 02:27:17;;;;;;;32.13;13.60;;;-3.70;99.90;;;;;;5111565;28;20012;-79
2024/01/20 02:29:43;;;;;;;25.05;13.52;;;-2.80;99.90;;;;;;5107842;28;20154;-76
2024/01/20 02:32:09;;;;;;;29.98;13.75;;;-3.70;99.90;;;;;;5073612;28;20040;-76
2024/01/20 02:34:37;;;;;;;34.22;15.05;;;-3.50;99.90;;;;;;5091847;28;20031;-78
2024/01/20 02:37:04;;;;;;;30.65;13.38;;;-2.80;99.90;;;;;;5091441;28;20024;-76
2024/01/20 02:39:29;;;;;;;34.85;12.77;;;-3.50;99.90;;;;;;5093722;28;20008;-80
2024/01/20 02:41:55;;;;;;;40.70;15.45;;;-3.30;99.90;;;;;;5079631;28;20047;-81
2024/01/20 02:44:24;;;;;;;;;;;-3.30;99.90;;;;;;5092035;28;20027;-76
2024/01/20 02:46:52;;;;;;;35.85;12.95;;;-3.40;99.90;;;;;;5072162;28;19904;-77
2024/01/20 02:49:18;;;;;;;41.95;15.10;;;-3.50;99.90;;;;;;5075296;28;20037;-77
2024/01/20 02:51:43;;;;;;;37.05;15.30;;;-3.40;99.90;;;;;;5069757;28;20032;-77
2024/01/20 02:54:09;;;;;;;41.88;12.13;;;-3.30;99.90;;;;;;5088549;28;20036;-76
2024/01/20 02:56:34;;;;;;;33.17;13.52;;;-3.60;99.90;;;;;;5091185;28;20020;-77
2024/01/20 02:59:00;;;;;;;33.88;15.15;;;-1.90;99.90;;;;;;5075841;28;20027;-76
2024/01/20 03:01:32;;;;;;;31.30;12.85;;;-3.70;99.90;;;;;;5076097;28;20029;-78
2024/01/20 03:03:58;;;;;;;39.35;14.02;;;-3.70;99.90;;;;;;5075902;28;20024;-77
2024/01/20 03:06:27;;;;;;;32.25;12.63;;;-3.00;99.90;;;;;;5075353;28;20021;-77
2024/01/20 03:08:59;;;;;;;36.55;12.75;;;-3.70;99.90;;;;;;5076632;28;20078;-77
2024/01/20 03:11:25;;;;;;;33.70;13.60;;;-3.60;99.90;;;;;;5076031;28;20031;-76
2024/01/20 03:13:50;;;;;;;38.83;15.52;;;-3.60;99.90;;;;;;5075736;28;20243;-81
2024/01/20 03:16:16;;;;;;;30.27;13.50;;;-2.30;99.90;;;;;;5074365;28;20020;-76
2024/01/20 03:18:42;;;;;;;33.40;14.55;;;-3.70;99.90;;;;;;5070472;28;20029;-76
2024/01/20 03:21:08;;;;;;;40.63;15.40;;;-3.70;99.90;;;;;;5041533;28;20036;-77
2024/01/20 03:23:34;;;;;;;31.55;14.65;;;-3.60;99.90;;;;;;5049994;28;20021;-79
2024/01/20 03:26:10;;;;;;;43.35;16.73;;;-3.80;99.90;;;;;;5050469;28;20052;-78
2024/01/20 03:28:40;;;;;;;36.70;11.27;;;-4.00;99.90;;;;;;5049424;28;20033;-77
2024/01/20 03:31:06;;;;;;;31.92;13.15;;;-3.90;99.90;;;;;;5064257;28;20059;-79
2024/01/20 03:33:32;;;;;;;37.42;12.77;;;-3.80;99.90;;;;;;5065745;28;20111;-80
2024/01/20 03:35:57;;;;;;;37.05;13.35;;;-3.90;99.90;;;;;;5044080;28;20025;-78
2024/01/20 03:38:23;;;;;;;44.90;16.50;;;-2.50;99.90;;;;;;5042593;28;20116;-77
2024/01/20 03:40:49;;;;;;;34.10;15.07;;;-3.70;99.90;;;;;;5041950;28;20089;-76
2024/01/20 03:43:14;;;;;;;38.42;15.13;;;-3.80;99.90;;;;;;5060518;28;20473;-77
2024/01/20 03:45:43;;;;;;;39.17;15.07;;;-3.80;99.90;;;;;;5044445;28;20045;-77
2024/01/20 03:48:09;;;;;;;34.65;14.40;;;-3.80;99.90;;;;;;5043510;28;20346;-77
2024/01/20 03:50:35;;;;;;;30.35;13.55;;;-3.90;99.90;;;;;;5045246;28;20036;-80
2024/01/20 03:53:00;;;;;;;30.35;13.98;;;-3.90;99.90;;;;;;5061138;28;20091;-76
2024/01/20 03:55:26;;;;;;;31.73;13.38;;;-3.30;99.90;;;;;;5043166;28;20123;-78
2024/01/20 03:57:52;;;;;;;33.20;12.45;;;-4.00;99.90;;;;;;5041779;28;20028;-78
2024/01/20 04:00:17;;;;;;;32.75;14.02;;;-4.10;99.90;;;;;;5040918;28;20111;-79
2024/01/20 04:02:43;;;;;;;38.50;15.95;;;-4.10;99.90;;;;;;5040936;28;20098;-80
2024/01/20 04:05:09;;;;;;;33.72;12.82;;;-3.20;99.90;;;;;;5041575;28;20025;-78
2024/01/20 04:07:35;;;;;;;37.08;13.07;;;-4.00;99.90;;;;;;5042752;28;20033;-79
2024/01/20 04:10:01;;;;;;;31.40;14.10;;;-4.10;99.90;;;;;;5042070;28;20021;-77
2024/01/20 04:12:29;;;;;;;34.22;13.63;;;-4.00;99.90;;;;;;5040895;28;20086;-78
2024/01/20 04:14:55;;;;;;;30.30;13.50;;;-3.90;99.90;;;;;;5039615;28;20032;-76
2024/01/20 04:17:21;;;;;;;36.88;16.95;;;-3.80;99.90;;;;;;5055929;28;20263;-78
2024/01/20 04:19:47;;;;;;;27.17;13.00;;;-2.50;99.90;;;;;;5040524;28;20032;-79
2024/01/20 04:22:13;;;;;;;28.60;12.25;;;-3.80;99.90;;;;;;5039606;28;20025;-78
2024/01/20 04:24:40;;;;;;;27.48;11.98;;;-4.10;99.90;;;;;;5040347;28;20040;-77
2024/01/20 04:27:06;;;;;;;23.95;11.40;;;-4.30;99.90;;;;;;5046251;28;20028;-82
2024/01/20 04:29:31;;;;;;;28.75;12.30;;;-4.30;99.90;;;;;;5051384;28;20112;-81
2024/01/20 04:31:57;;;;;;;30.05;12.07;;;-4.30;99.90;;;;;;5086834;28;20044;-80
2024/01/20 04:34:23;;;;;;;32.95;14.73;;;-3.10;99.90;;;;;;5086241;28;20031;-81
2024/01/20 04:36:49;;;;;;;27.40;12.85;;;-4.10;99.90;;;;;;5082478;28;20493;-78
2024/01/20 04:39:14;;;;;;;31.52;13.50;;;-4.10;99.90;;;;;;5073762;28;20025;-78
2024/01/20 04:41:40;;;;;;;31.98;14.27;;;-4.00;99.90;;;;;;5073015;28;20032;-76
2024/01/20 04:44:06;;;;;;;27.92;13.35;;;-4.10;99.90;;;;;;5074718;28;20062;-79
2024/01/20 04:46:32;;;;;;;31.70;12.48;;;-4.30;99.90;;;;;;5077090;28;20025;-76
2024/01/20 04:48:57;;;;;;;34.53;11.43;;;-4.30;99.90;;;;;;5083375;28;20551;-78
2024/01/20 04:51:23;;;;;;;26.42;11.35;;;-3.50;99.90;;;;;;5081799;28;20469;-78
2024/01/20 04:53:49;;;;;;;31.38;13.35;;;-2.80;99.90;;;;;;5083868;28;20051;-78
2024/01/20 04:56:19;;;;;;;33.53;14.65;;;-3.90;99.90;;;;;;5083206;28;20062;-76
2024/01/20 04:58:45;;;;;;;31.63;12.85;;;-4.30;99.90;;;;;;5082865;28;20052;-78
2024/01/20 05:01:11;;;;;;;34.15;13.82;;;-4.40;99.90;;;;;;5081834;28;20043;-79
2024/01/20 05:03:37;;;;;;;33.22;12.57;;;-4.40;99.90;;;;;;5078029;28;20025;-79
2024/01/20 05:06:03;;;;;;;26.35;11.02;;;-4.40;99.90;;;;;;5076034;28;20020;-76
2024/01/20 05:08:28;;;;;;;26.17;10.88;;;-4.50;99.90;;;;;;5076326;28;20191;-79
2024/01/20 05:10:54;;;;;;;26.52;11.90;;;-3.80;99.90;;;;;;5078672;28;20074;-76
2024/01/20 05:13:19;;;;;;;29.30;12.07;;;-4.50;99.90;;;;;;5079971;28;20041;-78
2024/01/20 05:15:45;;;;;;;25.23;13.27;;;-3.90;99.90;;;;;;5079407;28;20025;-76
2024/01/20 05:18:11;;;;;;;26.30;12.52;;;-4.30;99.90;;;;;;5083814;28;20032;-80
2024/01/20 05:20:37;;;;;;;27.20;12.48;;;-4.20;99.90;;;;;;5106084;28;20046;-78
2024/01/20 05:23:03;;;;;;;36.00;12.20;;;-4.10;99.90;;;;;;5104805;28;20407;-78
2024/01/20 05:25:29;;;;;;;32.67;14.43;;;-4.00;99.90;;;;;;5103579;28;20091;-77
2024/01/20 05:27:55;;;;;;;29.73;12.85;;;-4.00;99.90;;;;;;5101272;28;20542;-79
2024/01/20 05:30:21;;;;;;;32.70;13.35;;;-3.90;99.90;;;;;;5099775;28;20060;-78
2024/01/20 05:32:47;;;;;;;24.00;11.32;;;-3.90;99.90;;;;;;5099368;28;20036;-77
2024/01/20 05:35:13;;;;;;;27.73;13.32;;;-2.30;99.90;;;;;;5103764;28;20052;-77
2024/01/20 05:37:38;;;;;;;27.67;13.07;;;-3.70;99.90;;;;;;5102362;28;20032;-77
2024/01/20 05:40:05;;;;;;;26.95;12.10;;;-3.70;99.90;;;;;;5099245;28;20034;-77
2024/01/20 05:42:30;;;;;;;37.42;15.20;;;-3.70;99.90;;;;;;5099903;28;20024;-79
2024/01/20 05:44:56;;;;;;;35.88;14.02;;;-2.90;99.90;;;;;;5099097;28;20303;-77
2024/01/20 05:47:22;;;;;;;30.38;13.30;;;-3.40;99.90;;;;;;5098740;28;20523;-78
2024/01/20 05:49:48;;;;;;;31.75;12.77;;;-3.40;99.90;;;;;;5100783;28;20024;-79
2024/01/20 05:52:13;;;;;;;31.35;13.65;;;-3.60;99.90;;;;;;5100431;28;20017;-76
2024/01/20 05:54:39;;;;;;;31.20;11.43;;;-3.00;99.90;;;;;;5098777;28;20032;-79
2024/01/20 05:57:05;;;;;;;32.22;12.52;;;-4.00;99.90;;;;;;5101703;28;20129;-78
2024/01/20 05:59:30;;;;;;;31.23;13.63;;;-4.00;99.90;;;;;;5101593;28;20055;-79
2024/01/20 06:01:56;;;;;;;31.63;12.05;;;-3.80;99.90;;;;;;5103568;28;20020;-77
2024/01/20 06:04:22;;;;;;;22.90;10.57;;;-3.80;99.90;;;;;;5110052;28;20042;-78
2024/01/20 06:06:48;;;;;;;29.27;12.15;;;-3.80;99.90;;;;;;5109789;28;20020;-78
2024/01/20 06:09:21;;;;;;;27.63;12.40;;;-3.80;99.90;;;;;;5107758;28;20034;-77
2024/01/20 06:11:50;;;;;;;34.30;13.77;;;-3.70;99.90;;;;;;5110236;28;20023;-76
2024/01/20 06:14:16;;;;;;;30.60;12.50;;;-3.60;99.90;;;;;;5106668;28;20100;-79
2024/01/20 06:16:41;;;;;;;28.50;12.25;;;-3.40;99.90;;;;;;5101952;28;20293;-77
2024/01/20 06:19:08;;;;;;;39.08;13.25;;;-3.20;99.90;;;;;;5092619;28;20021;-78
2024/01/20 06:21:33;;;;;;;30.00;12.88;;;-3.10;99.90;;;;;;5081656;28;20035;-78
2024/01/20 06:23:59;;;;;;;30.77;12.70;;;-3.10;99.90;;;;;;5082090;28;20024;-77
2024/01/20 06:26:25;;;;;;;26.38;14.02;;;-2.50;99.90;;;;;;5086559;28;20070;-77
2024/01/20 06:28:50;;;;;;;28.15;12.80;;;-3.20;99.90;;;;;;5074928;28;20020;-73
2024/01/20 06:31:27;;;;;;;31.92;12.57;;;-2.40;99.90;;;;;;5065025;28;20104;-73
2024/01/20 06:33:53;;;;;;;32.13;11.88;;;-3.20;99.90;;;;;;5058812;28;20033;-77
2024/01/20 06:36:27;;;;;;;34.22;12.15;;;-2.40;99.90;;;;;;5059511;28;20443;-73
2024/01/20 06:38:53;;;;;;;27.73;11.88;;;-3.40;99.90;;;;;;5062135;28;20040;-74
2024/01/20 06:41:18;;;;;;;31.95;13.88;;;-3.20;99.90;;;;;;5061399;28;20024;-74
2024/01/20 06:43:45;;;;;;;31.27;13.52;;;-2.60;99.90;;;;;;5061235;28;20028;-73
2024/01/20 06:46:14;;;;;;;33.50;14.48;;;-3.60;99.90;;;;;;5064720;28;20028;-74
2024/01/20 06:48:39;;;;;;;29.13;13.87;;;-3.90;99.90;;;;;;5065142;28;20024;-76
2024/01/20 06:51:25;;;;;;;28.45;13.00;;;-4.20;99.90;;;;;;5061811;28;20809;-73
2024/01/20 06:53:57;;;;;;;34.30;14.38;;;-4.40;99.90;;;;;;5059518;28;20029;-73
2024/01/20 06:56:26;;;;;;;35.65;15.27;;;-4.50;99.90;;;;;;5060451;28;20123;-75
2024/01/20 06:58:56;;;;;;;32.10;14.02;;;-4.60;99.90;;;;;;5042491;28;20079;-74
2024/01/20 07:01:22;;;;;;;31.17;12.88;;;-4.70;99.90;;;;;;5059486;28;20052;-75
2024/01/20 07:03:49;;;;;;;35.90;14.95;;;-4.70;99.90;;;;;;5057223;28;20108;-74
2024/01/20 07:06:14;;;;;;;43.70;16.45;;;-4.70;99.90;;;;;;5058861;28;20041;-74
2024/01/20 07:08:44;;;;;;;33.15;12.73;;;-4.70;99.90;;;;;;5053533;28;20292;-75
2024/01/20 07:11:10;;;;;;;31.45;13.05;;;-4.70;99.90;;;;;;5052717;28;20072;-76
2024/01/20 07:13:37;;;;;;;31.15;13.32;;;-4.70;99.90;;;;;;5052088;28;20040;-76
2024/01/20 07:16:13;;;;;;;37.85;15.50;;;-4.70;99.90;;;;;;5051380;28;20025;-75
2024/01/20 07:18:40;;;;;;;28.90;14.15;;;-4.60;99.90;;;;;;5040736;28;20078;-74
2024/01/20 07:21:06;;;;;;;35.40;15.73;;;-4.50;99.90;;;;;;5072377;28;20048;-75
2024/01/20 07:23:32;;;;;;;45.05;16.10;;;-4.40;99.90;;;;;;5073971;28;20032;-75
2024/01/20 07:26:00;;;;;;;36.15;17.15;;;-4.40;99.90;;;;;;5076582;28;20048;-79
2024/01/20 07:28:29;;;;;;;42.17;15.52;;;-4.30;99.90;;;;;;5075342;28;20040;-76
2024/01/20 07:30:54;;;;;;;34.55;15.25;;;-4.30;99.90;;;;;;5073311;28;20045;-77
2024/01/20 07:33:20;;;;;;;36.58;15.15;;;-4.50;99.90;;;;;;5075975;28;20111;-76
2024/01/20 07:35:46;;;;;;;33.60;14.02;;;-3.70;99.90;;;;;;5061562;28;20085;-76
2024/01/20 07:38:12;;;;;;;39.83;15.73;;;-4.30;99.90;;;;;;5041895;28;20097;-77
2024/01/20 07:40:38;;;;;;;37.72;15.27;;;-4.50;99.90;;;;;;5052120;28;20053;-79
2024/01/20 07:43:04;;;;;;;42.00;14.57;;;-4.40;99.90;;;;;;5036084;28;20489;-77
2024/01/20 07:45:31;;;;;;;37.08;14.93;;;-4.30;99.90;;;;;;5034364;28;20343;-75
2024/01/20 07:47:57;;;;;;;40.50;15.10;;;-4.30;99.90;;;;;;5034773;28;20032;-75
2024/01/20 07:50:23;;;;;;;35.33;14.30;;;-4.20;99.90;;;;;;5052400;28;20088;-76
2024/01/20 07:52:49;;;;;;;35.83;15.55;;;-3.60;99.90;;;;;;5034904;28;20072;-76
2024/01/20 07:55:15;;;;;;;32.47;14.18;;;-4.40;99.90;;;;;;5035447;28;20043;-74
2024/01/20 07:57:43;;;;;;;35.78;14.30;;;-4.30;99.90;;;;;;5038953;28;20032;-74
2024/01/20 08:00:13;;;;;;;37.63;16.13;;;-4.30;99.90;;;;;;5061240;28;20025;-74
2024/01/20 08:02:39;;;;;;;34.60;15.65;;;-4.30;99.90;;;;;;5055566;28;20257;-74
2024/01/20 08:05:06;;;;;;;39.90;15.02;;;-4.30;99.90;;;;;;5044279;28;20025;-76
2024/01/20 08:07:34;;;;;;;39.05;15.95;;;-4.30;99.90;;;;;;5037064;28;20021;-73
2024/01/20 08:10:00;;;;;;;46.20;16.63;;;-4.20;99.90;;;;;;5057323;28;20032;-76
2024/01/20 08:12:27;;;;;;;46.83;17.25;;;-4.20;99.90;;;;;;5037613;28;20067;-75
2024/01/20 08:14:53;;;;;;;36.50;13.95;;;-4.20;99.90;;;;;;5052706;28;20029;-74
2024/01/20 08:17:19;;;;;;;39.92;15.77;;;-4.20;99.90;;;;;;5067252;28;20547;-75
2024/01/20 08:19:50;;;;;;;38.80;15.40;;;-4.20;99.90;;;;;;5060463;28;20055;-78
2024/01/20 08:22:15;;;;;;;40.33;17.65;;;-3.10;99.90;;;;;;5027927;28;20037;-78
2024/01/20 08:24:41;;;;;;;41.92;16.23;;;-2.20;99.90;;;;;;5043091;28;20009;-78
2024/01/20 08:27:07;;;;;;;43.58;17.88;;;-2.80;99.90;;;;;;5043672;28;20024;-79
2024/01/20 08:29:33;;;;;;;36.50;15.02;;;-2.50;99.90;;;;;;5056394;28;20033;-76
2024/01/20 08:31:58;;;;;;;45.55;16.17;;;-3.30;99.90;;;;;;5057317;28;20059;-78
2024/01/20 08:34:24;;;;;;;33.15;15.27;;;-3.40;99.90;;;;;;5059243;28;20040;-80
2024/01/20 08:36:57;;;;;;;39.30;15.65;;;-3.50;99.90;;;;;;5079990;28;20020;-76
2024/01/20 08:39:23;;;;;;;34.67;14.57;;;-2.20;99.90;;;;;;5084828;28;20073;-78
2024/01/20 08:41:49;;;;;;;38.30;13.35;;;-2.50;99.90;;;;;;5060065;28;20106;-77
2024/01/20 08:44:16;;;;;;;47.95;17.33;;;-3.40;99.90;;;;;;5069595;28;20024;-76
2024/01/20 08:46:41;;;;;;;37.22;14.70;;;-3.90;99.90;;;;;;5055429;28;20029;-77
2024/01/20 08:49:07;;;;;;;44.47;18.95;;;-3.00;99.90;;;;;;5070795;28;20082;-76
2024/01/20 08:51:33;;;;;;;44.17;15.60;;;-2.00;99.90;;;;;;5052761;28;20081;-76
2024/01/20 08:53:58;;;;;;;38.20;15.70;;;-1.90;99.90;;;;;;5052087;28;20036;-78
2024/01/20 08:56:25;;;;;;;45.72;16.95;;;-3.30;99.90;;;;;;5049958;28;20028;-77
2024/01/20 08:58:51;;;;;;;42.97;16.35;;;-2.00;99.90;;;;;;5072956;28;20040;-78
2024/01/20 09:01:17;;;;;;;36.42;14.65;;;-2.70;99.90;;;;;;5057144;28;20032;-78
2024/01/20 09:03:44;;;;;;;38.70;14.60;;;-3.60;99.90;;;;;;5054097;28;20017;-77
2024/01/20 09:06:13;;;;;;;42.20;15.75;;;-3.90;99.90;;;;;;5052161;28;20035;-77
2024/01/20 09:08:40;;;;;;;37.85;14.38;;;-4.10;99.90;;;;;;5054367;28;20384;-74
2024/01/20 09:11:06;;;;;;;36.28;14.27;;;-4.00;99.90;;;;;;5065469;28;20033;-73
2024/01/20 09:13:31;;;;;;;39.08;12.32;;;-3.90;99.90;;;;;;5086472;28;20198;-74
2024/01/20 09:15:57;;;;;;;37.25;14.52;;;-4.00;99.90;;;;;;5083836;28;20208;-74
2024/01/20 09:18:22;;;;;;;36.75;15.48;;;-4.20;99.90;;;;;;5062731;28;20066;-74
2024/01/20 09:20:48;;;;;;;32.53;14.68;;;-4.40;99.90;;;;;;5087787;28;20047;-77
2024/01/20 09:23:16;;;;;;;38.80;14.85;;;-4.60;99.90;;;;;;5081220;28;20400;-73
2024/01/20 09:25:42;;;;;;;40.38;15.90;;;-4.60;99.90;;;;;;5080385;28;20465;-73
2024/01/20 09:28:09;;;;;;;45.67;14.60;;;-4.80;99.90;;;;;;5069605;28;20024;-73
2024/01/20 09:30:39;;;;;;;37.05;13.38;;;-4.80;99.90;;;;;;5077227;28;20053;-73
2024/01/20 09:33:06;;;;;;;41.97;16.40;;;-4.80;99.90;;;;;;5059575;28;20033;-73
2024/01/20 09:35:32;;;;;;;46.05;17.00;;;-4.80;99.90;;;;;;5054441;28;20363;-76
2024/01/20 09:37:57;;;;;;;29.90;13.10;;;-4.90;99.90;;;;;;5065227;28;20028;-73
2024/01/20 09:40:23;;;;;;;37.80;14.32;;;-4.90;99.90;;;;;;5083855;28;20017;-74
2024/01/20 09:42:50;;;;;;;43.78;15.50;;;-4.80;99.90;;;;;;5077537;28;20017;-73
2024/01/20 09:45:15;;;;;;;41.40;15.40;;;-4.70;99.90;;;;;;5066670;28;20061;-73
2024/01/20 09:47:41;;;;;;;40.50;15.70;;;-4.50;99.90;;;;;;5067304;28;20047;-74
2024/01/20 09:50:07;;;;;;;35.70;15.82;;;-3.70;99.90;;;;;;5049311;28;20427;-76
2024/01/20 09:53:03;;;;;;;37.95;15.57;;;-4.40;99.90;;;;;;5051864;28;20017;-73
2024/01/20 09:55:29;;;;;;;36.15;15.00;;;-4.40;99.90;;;;;;5060898;28;20280;-74
2024/01/20 09:57:55;;;;;;;46.10;15.15;;;-4.40;99.90;;;;;;5063598;28;20025;-74
2024/01/20 10:00:23;;;;;;;39.00;15.85;;;-4.30;99.90;;;;;;5046431;28;20335;-72
2024/01/20 10:02:49;;;;;;;34.35;15.23;;;-4.30;99.90;;;;;;5063958;28;20044;-77
2024/01/20 10:05:16;;;;;;;38.67;15.18;;;-4.20;99.90;;;;;;5067398;28;19998;-77
2024/01/20 10:07:42;;;;;;;35.35;14.77;;;-4.20;99.90;;;;;;5055213;28;20051;-75
2024/01/20 10:10:21;;;;;;;36.85;14.80;;;-4.10;99.90;;;;;;5077165;28;20031;-75
2024/01/20 10:12:54;;;;;;;31.23;13.93;;;-4.00;99.90;;;;;;5076492;28;20212;-75
2024/01/20 10:15:27;;;;;;;31.48;13.90;;;-3.80;99.90;;;;;;5074613;28;20012;-76
2024/01/20 10:18:00;;;;;;;27.00;12.57;;;-3.70;99.90;;;;;;5070244;28;20013;-75
2024/01/20 10:20:31;;;;;;;28.75;12.57;;;-3.60;99.90;;;;;;5072635;28;20086;-74
2024/01/20 10:23:01;;;;;;;35.05;13.10;;;-3.50;99.90;;;;;;5069965;28;20024;-77
2024/01/20 10:25:28;;;;;;;32.65;13.02;;;-3.00;99.90;;;;;;5071256;28;20028;-75
2024/01/20 10:27:53;;;;;;;27.48;12.38;;;-3.20;99.90;;;;;;5050605;28;20096;-75
2024/01/20 10:30:26;;;;;;;27.60;13.10;;;-2.70;99.90;;;;;;5063202;28;20537;-74
2024/01/20 10:32:52;;;;;;;45.17;19.70;;;-3.40;99.90;;;;;;5105388;28;20091;-74
2024/01/20 10:35:17;;;;;;;21.42;10.60;;;-3.30;99.90;;;;;;5105146;28;20024;-73
2024/01/20 10:37:49;;;;;;;21.60;11.65;;;-2.70;99.90;;;;;;5105735;28;20028;-75
2024/01/20 10:40:15;;;;;;;26.55;12.00;;;-2.30;99.90;;;;;;5105023;28;20062;-76
2024/01/20 10:42:55;;;;;;;31.85;11.60;;;-3.00;99.90;;;;;;5089077;28;20110;-73
2024/01/20 10:45:24;;;;;;;26.02;12.82;;;-2.90;99.90;;;;;;5084817;28;20013;-74
2024/01/20 10:48:12;;;;;;;28.75;11.93;;;-2.90;99.90;;;;;;5085796;28;20295;-74
2024/01/20 10:50:43;;;;;;;24.23;10.45;;;-2.90;99.90;;;;;;5085697;28;20015;-74
2024/01/20 10:53:09;;;;;;;22.58;11.35;;;-2.90;99.90;;;;;;5100928;28;20099;-74
2024/01/20 10:55:36;;;;;;;28.08;11.95;;;-2.60;99.90;;;;;;5100169;28;20031;-72
2024/01/20 10:58:06;;;;;;;25.75;10.93;;;-2.80;99.90;;;;;;5093442;28;20300;-74
2024/01/20 11:00:32;;;;;;;22.55;10.80;;;-2.70;99.90;;;;;;5096047;28;20016;-73
2024/01/20 11:03:01;;;;;;;18.92;9.77;;;-2.60;99.90;;;;;;5105057;28;20083;-75
2024/01/20 11:05:27;;;;;;;22.65;9.88;;;-2.80;99.90;;;;;;5096308;28;20084;-73
2024/01/20 11:07:57;;;;;;;20.15;9.25;;;-2.70;99.90;;;;;;5091907;28;20111;-80
2024/01/20 11:10:24;;;;;;;24.38;9.50;;;-2.30;99.90;;;;;;5100498;28;20018;-74
2024/01/20 11:13:23;;;;;;;21.85;9.13;;;-2.70;99.90;;;;;;5091471;28;20032;-76
2024/01/20 11:15:57;;;;;;;28.60;11.68;;;-2.60;99.90;;;;;;5070808;28;20033;-74
2024/01/20 11:18:25;;;;;;;22.58;9.70;;;-2.50;99.90;;;;;;5098562;28;20024;-76
2024/01/20 11:20:56;;;;;;;21.05;9.27;;;-2.50;99.90;;;;;;5115031;28;20032;-76
2024/01/20 11:23:22;;;;;;;18.13;8.52;;;-2.40;99.90;;;;;;5090961;28;20289;-74
2024/01/20 11:25:47;;;;;;;30.05;10.93;;;-2.30;99.90;;;;;;5099866;28;20118;-74
2024/01/20 11:28:35;;;;;;;21.85;9.10;;;-2.30;99.90;;;;;;5096105;28;20015;-80
2024/01/20 11:31:05;;;;;;;17.45;8.70;;;-2.20;99.90;;;;;;5112905;28;20103;-73
2024/01/20 11:33:38;;;;;;;22.90;10.38;;;-2.20;99.90;;;;;;5093600;28;20032;-78
2024/01/20 11:36:04;;;;;;;21.77;9.18;;;-2.10;99.90;;;;;;5103292;28;20073;-75
2024/01/20 11:38:32;;;;;;;12.50;5.15;;;-2.10;99.90;;;;;;5091024;28;20043;-76
2024/01/20 11:41:01;;;;;;;20.77;9.07;;;-2.10;99.90;;;;;;5100125;28;20016;-75
2024/01/20 11:43:27;;;;;;;17.40;9.05;;;-2.10;99.90;;;;;;5095121;28;20015;-77
2024/01/20 11:45:55;;;;;;;18.17;8.35;;;-2.00;99.90;;;;;;5094183;28;20025;-74
2024/01/20 11:48:21;;;;;;;17.10;8.90;;;-1.90;99.90;;;;;;5096091;28;20305;-76
2024/01/20 11:50:49;;;;;;;20.27;10.07;;;-0.80;99.90;;;;;;5086452;28;20035;-76
2024/01/20 11:53:20;;;;;;;22.90;11.52;;;-1.00;99.90;;;;;;5095631;28;20047;-75
2024/01/20 11:56:14;;;;;;;23.80;8.80;;;-1.80;99.90;;;;;;5093782;28;20074;-76
2024/01/20 11:58:40;;;;;;;19.30;8.48;;;-1.80;99.90;;;;;;5096702;28;20103;-80
2024/01/20 12:01:06;;;;;;;18.75;9.77;;;-1.00;99.90;;;;;;5088005;28;20212;-73
2024/01/20 12:03:32;;;;;;;22.75;8.45;;;-1.50;99.90;;;;;;5090461;28;20313;-77
2024/01/20 12:06:05;;;;;;;19.48;8.70;;;-1.50;99.90;;;;;;5087620;28;20020;-76
2024/01/20 12:08:31;;;;;;;18.40;8.23;;;-1.60;99.90;;;;;;5094657;28;20031;-76
2024/01/20 12:10:56;;;;;;;14.15;7.05;;;-1.60;99.90;;;;;;5092179;28;20083;-77
2024/01/20 12:13:22;;;;;;;14.77;8.38;;;-1.00;99.90;;;;;;5090309;28;20043;-77
2024/01/20 12:15:49;;;;;;;23.02;8.38;;;-1.50;99.90;;;;;;5085386;28;20028;-77
2024/01/20 12:18:16;;;;;;;15.88;8.27;;;-1.50;99.90;;;;;;5087994;28;20669;-80
2024/01/20 12:20:43;;;;;;;19.75;8.77;;;-1.50;99.90;;;;;;5089431;28;20027;-77
2024/01/20 12:23:09;;;;;;;17.45;7.90;;;-1.50;99.90;;;;;;5092520;28;20044;-77
2024/01/20 12:25:35;;;;;;;15.85;8.40;;;-1.10;99.90;;;;;;5090943;28;20027;-79
2024/01/20 12:28:04;;;;;;;18.52;9.60;;;-1.50;99.90;;;;;;5090314;28;20042;-77